Monday, November 19, 2018, 3:12 AM EST
Back to Local

KDMH, Baltimore Downtown

Location: Baltimore, MD, United States Lat: 39.283
Local Time: 3:12 AM EST ( 8:12 GMT) Lon: -76.617
Time Zone: US/Eastern Elev: 19 ft

Show me the last for .
Show Coded

Time T Td Feel RH Dir Speed Gust Alt SLP Vis Weather Sky Remarks
2018-11-19 02:54 42 38 - 85 - - - 30.14 30.14 0 None
2018-11-19 01:54 43 39 - 85 - - - 30.15 30.15 0 None
2018-11-19 00:54 43 39 - 85 - - - 30.17 30.16 0 6-hr Min Temp (1am): 42.1°F
6-hr Max Temp (1am): 48.0°F
2018-11-18 23:54 43 39 - 85 - - - 30.18 30.18 0 24-hr Min Temp (12am): 37.0°F
24-hr Max Temp (12am): 48.9°F
2018-11-18 22:54 44 39 - 82 - - - 30.20 30.19 0 None
2018-11-18 21:54 46 40 - 79 - - - 30.20 30.20 0 None
2018-11-18 20:54 46 39 - 76 - - - 30.21 30.21 0 None
2018-11-18 19:54 47 40 - 76 - - - 30.22 30.21 0 None
2018-11-18 18:54 47 38 - 70 - - - 30.23 30.23 0 6-hr Min Temp (7pm): 46.9°F
6-hr Max Temp (7pm): 48.9°F
2018-11-18 17:54 48 36 - 62 - - - 30.24 30.24 0 None
2018-11-18 16:54 48 36 - 62 - - - 30.23 30.23 0 None
2018-11-18 15:54 49 36 - 60 - - - 30.25 30.24 0 None
2018-11-18 14:54 49 34 - 56 - - - 30.25 30.25 0 None
2018-11-18 13:54 49 35 - 58 - - - 30.29 30.28 0 None
2018-11-18 12:54 48 34 - 58 - - - 30.33 30.33 0 6-hr Min Temp (1pm): 37.0°F
6-hr Max Temp (1pm): 48.9°F
2018-11-18 11:54 46 32 - 57 - - - 30.34 30.33 0 None
2018-11-18 10:54 46 34 - 62 - - - 30.37 30.37 0 None
2018-11-18 09:54 44 34 - 67 - - - 30.42 30.41 0 None
2018-11-18 08:54 43 33 - 67 - - - 30.43 30.43 0 None
2018-11-18 07:54 38 31 - 75 - - - 30.39 30.39 0 None
2018-11-18 06:54 37 30 - 75 - - - 30.37 30.37 0 6-hr Min Temp (7am): 37.0°F
6-hr Max Temp (7am): 42.1°F
2018-11-18 05:54 37 30 - 75 - - - 30.36 30.35 0 None
2018-11-18 04:54 37 30 - 75 - - - 30.35 30.35 0 None
2018-11-18 03:54 38 30 - 72 - - - 30.34 30.33 0 None

Support USWX by starting your Amazon purchase here.